Time;durP1;ratioP1;P1;durP2;ratioP2;P2;SDS_P1;SDS_P2;PMS_P1;PMS_P2;Temp;Humidity;BMP_temperature;BMP_pressure;BME280_temperature;BME280_humidity;BME280_pressure;Samples;Min_cycle;Max_cycle;Signal;HPM_P1;HPM_P2
2021/06/17 00:00:09;;;;;;;16.50;10.90;;;;;;;24.44;49.58;100865.88;5073595;28;20072;-51
2021/06/17 00:02:37;;;;;;;15.55;10.77;;;;;;;24.42;49.45;100871.00;5073468;28;20503;-51
2021/06/17 00:05:08;;;;;;;18.38;10.77;;;;;;;24.40;49.63;100873.31;5073078;28;20048;-51
2021/06/17 00:07:37;;;;;;;15.20;11.13;;;;;;;24.35;49.51;100871.63;5072259;28;20083;-51
2021/06/17 00:10:07;;;;;;;15.85;11.25;;;;;;;24.30;49.69;100880.25;5073335;28;20052;-51
2021/06/17 00:12:34;;;;;;;15.07;10.77;;;;;;;24.26;49.70;100876.56;5073203;28;20502;-49
2021/06/17 00:15:03;;;;;;;22.70;10.43;;;;;;;24.20;50.08;100876.03;5073737;28;20036;-54
2021/06/17 00:17:31;;;;;;;16.35;10.32;;;;;;;24.21;49.85;100880.44;5073275;28;20044;-49
2021/06/17 00:19:59;;;;;;;18.85;10.30;;;;;;;24.21;49.84;100877.63;5073266;28;20036;-52
2021/06/17 00:22:26;;;;;;;16.38;10.73;;;;;;;24.21;50.06;100885.19;5072913;28;20124;-52
2021/06/17 00:24:54;;;;;;;20.25;11.18;;;;;;;24.18;50.13;100883.94;5073016;28;20045;-50
2021/06/17 00:27:22;;;;;;;16.27;10.60;;;;;;;24.14;50.26;100871.09;5072302;28;20068;-51
2021/06/17 00:29:49;;;;;;;16.60;10.60;;;;;;;24.10;50.27;100882.16;5072127;28;20044;-51
2021/06/17 00:32:17;;;;;;;15.90;10.85;;;;;;;24.05;50.49;100874.03;5073158;28;20036;-52
2021/06/17 00:34:45;;;;;;;15.65;10.93;;;;;;;23.99;50.67;100870.72;5072488;28;20114;-51
2021/06/17 00:37:12;;;;;;;15.05;10.38;;;;;;;23.97;50.85;100867.50;5072810;28;20074;-51
2021/06/17 00:39:41;;;;;;;18.23;11.13;;;;;;;23.94;50.97;100871.00;5072944;28;20510;-52
2021/06/17 00:42:08;;;;;;;17.48;11.05;;;;;;;23.91;51.03;100862.53;5072240;28;20553;-49
2021/06/17 00:44:36;;;;;;;20.00;11.50;;;;;;;23.84;51.31;100862.38;5073025;28;20486;-52
2021/06/17 00:47:05;;;;;;;19.60;11.05;;;;;;;23.78;51.44;100854.28;5065196;28;20041;-51
2021/06/17 00:49:36;;;;;;;17.38;11.50;;;;;;;23.74;51.50;100853.38;5071298;28;20450;-50
2021/06/17 00:52:06;;;;;;;17.50;11.23;;;;;;;23.70;51.48;100849.66;5072251;28;20044;-51
2021/06/17 00:54:35;;;;;;;15.95;10.43;;;;;;;23.69;51.64;100844.44;5072466;28;20399;-52
2021/06/17 00:57:04;;;;;;;18.48;11.27;;;;;;;23.69;51.52;100842.50;5072224;28;20125;-49
2021/06/17 00:59:33;;;;;;;18.95;11.35;;;;;;;23.68;51.48;100837.28;5045529;28;20068;-54
2021/06/17 01:02:02;;;;;;;16.70;11.23;;;;;;;23.65;51.43;100832.44;5072855;28;20071;-49
2021/06/17 01:04:30;;;;;;;16.13;11.82;;;;;;;23.64;51.56;100839.94;5070956;28;20048;-53
2021/06/17 01:06:58;;;;;;;18.55;11.05;;;;;;;23.65;51.45;100844.38;5072643;28;20102;-52
2021/06/17 01:09:43;;;;;;;16.50;10.73;;;;;;;23.67;51.16;100835.66;5054996;28;20041;-46
2021/06/17 01:12:49;;;;;;;16.70;10.90;;;;;;;23.66;51.26;100839.59;5072509;28;20118;-52
2021/06/17 01:15:17;;;;;;;;;;;;;;;23.65;51.27;100836.03;5052391;28;20045;-52
2021/06/17 01:17:54;;;;;;;15.90;10.95;;;;;;;23.64;51.37;100841.94;5072616;28;19927;-51
2021/06/17 01:20:28;;;;;;;18.88;11.38;;;;;;;23.63;51.35;100829.19;5071440;28;20040;-52
2021/06/17 01:23:21;;;;;;;15.98;10.77;;;;;;;23.60;51.45;100830.72;5072481;28;20117;-49
2021/06/17 01:26:38;;;;;;;18.48;11.13;;;;;;;23.56;51.58;100824.25;5071359;28;20083;-51
2021/06/17 01:29:06;;;;;;;18.30;11.55;;;;;;;23.52;51.61;100828.91;4994432;28;20050;-49
2021/06/17 01:31:35;;;;;;;14.98;9.98;;;;;;;23.52;51.63;100835.28;4994389;28;20077;-53
2021/06/17 01:34:02;;;;;;;14.57;10.05;;;;;;;23.58;51.55;100833.84;4990948;28;20442;-50
2021/06/17 01:36:36;;;;;;;14.80;10.52;;;;;;;23.66;51.12;100834.03;4973268;28;20091;-54
2021/06/17 01:39:07;;;;;;;15.55;10.23;;;;;;;23.65;51.15;100838.81;4990601;28;20171;-54
2021/06/17 01:41:40;;;;;;;17.63;11.60;;;;;;;23.62;51.23;100847.88;4993073;28;20054;-48
2021/06/17 01:44:09;;;;;;;15.90;11.75;;;;;;;23.61;51.49;100847.03;4983807;28;20046;-54
2021/06/17 01:46:37;;;;;;;16.75;11.25;;;;;;;23.61;51.36;100844.25;4976142;28;20097;-52
2021/06/17 01:49:06;;;;;;;16.75;11.77;;;;;;;23.58;51.67;100849.75;4994684;28;20042;-50
2021/06/17 01:51:34;;;;;;;22.08;11.05;;;;;;;23.51;52.03;100843.97;4994762;28;20088;-51
2021/06/17 01:54:02;;;;;;;23.80;11.85;;;;;;;23.46;52.42;100841.47;4980443;28;20042;-52
2021/06/17 01:56:30;;;;;;;18.70;11.60;;;;;;;23.42;52.41;100835.78;4994464;28;20073;-51
2021/06/17 01:59:01;;;;;;;14.63;11.18;;;;;;;23.36;52.44;100835.25;5003883;28;20122;-47
2021/06/17 02:01:31;;;;;;;23.58;12.40;;;;;;;23.30;52.64;100833.88;5056272;28;20041;-49
2021/06/17 02:04:00;;;;;;;16.63;11.98;;;;;;;23.27;52.80;100831.81;5038639;28;20495;-50
2021/06/17 02:06:30;;;;;;;18.50;12.27;;;;;;;23.24;52.72;100832.53;5038519;28;20491;-54
2021/06/17 02:08:58;;;;;;;17.10;11.95;;;;;;;23.21;52.92;100833.22;5038033;28;20068;-51
2021/06/17 02:11:28;;;;;;;17.40;11.35;;;;;;;23.17;52.84;100824.78;5038183;28;20040;-51
2021/06/17 02:13:57;;;;;;;18.00;11.85;;;;;;;23.17;52.87;100835.09;5055792;28;20052;-53
2021/06/17 02:16:26;;;;;;;16.10;11.40;;;;;;;23.17;52.86;100840.66;5038366;28;20048;-52
2021/06/17 02:18:56;;;;;;;16.42;10.70;;;;;;;23.17;52.94;100835.09;5038265;28;20052;-53
2021/06/17 02:21:28;;;;;;;16.67;11.55;;;;;;;23.19;52.77;100832.78;5055596;28;20129;-50
2021/06/17 02:23:58;;;;;;;18.00;11.93;;;;;;;23.19;52.65;100835.56;5055429;28;20491;-51
2021/06/17 02:26:26;;;;;;;20.00;11.60;;;;;;;23.16;52.78;100825.94;5038346;28;20045;-52
2021/06/17 02:28:55;;;;;;;16.65;10.98;;;;;;;23.13;53.15;100828.63;5055460;28;20090;-49
2021/06/17 02:31:26;;;;;;;17.13;11.25;;;;;;;23.09;53.17;100824.91;5055550;28;20061;-52
2021/06/17 02:33:54;;;;;;;17.75;11.50;;;;;;;23.04;53.50;100817.66;5038033;28;20081;-53
2021/06/17 02:36:22;;;;;;;16.02;10.60;;;;;;;23.02;53.65;100817.19;5020117;28;20119;-51
2021/06/17 02:38:53;;;;;;;20.60;11.75;;;;;;;23.00;53.65;100821.50;5034358;28;20099;-49
2021/06/17 02:41:23;;;;;;;18.65;11.60;;;;;;;22.99;53.81;100822.66;5036673;28;20377;-51
2021/06/17 02:43:55;;;;;;;18.20;11.45;;;;;;;23.03;53.79;100826.34;5037422;28;20053;-53
2021/06/17 02:46:23;;;;;;;16.45;11.65;;;;;;;23.01;53.78;100814.78;5037578;28;20045;-53
2021/06/17 02:48:52;;;;;;;16.67;11.52;;;;;;;23.00;53.88;100813.16;5055185;28;20068;-53
2021/06/17 02:51:20;;;;;;;17.63;11.95;;;;;;;22.96;54.09;100808.25;5054502;28;20091;-54
2021/06/17 02:53:48;;;;;;;16.30;12.18;;;;;;;22.96;54.02;100801.91;5054147;28;20103;-53
2021/06/17 02:56:54;;;;;;;18.52;11.82;;;;;;;22.93;54.10;100803.41;5054483;28;20041;-52
2021/06/17 02:59:43;;;;;;;20.52;12.57;;;;;;;22.93;54.16;100808.97;5041923;28;20435;-52
2021/06/17 03:02:28;;;;;;;22.33;11.93;;;;;;;22.97;54.22;100800.75;5054426;28;20071;-50
2021/06/17 03:05:02;;;;;;;18.23;11.55;;;;;;;22.98;54.29;100813.50;5054745;28;20041;-53
2021/06/17 03:07:34;;;;;;;20.33;12.80;;;;;;;22.97;54.53;100814.66;5054943;28;20045;-51
2021/06/17 03:10:05;;;;;;;15.90;12.20;;;;;;;22.95;54.63;100803.88;5037259;28;20041;-51
2021/06/17 03:12:34;;;;;;;16.42;12.93;;;;;;;22.93;54.91;100803.41;5054661;28;20112;-52
2021/06/17 03:15:05;;;;;;;25.58;13.13;;;;;;;22.89;55.26;100799.72;5037034;28;20407;-50
2021/06/17 03:17:43;;;;;;;19.63;12.68;;;;;;;22.87;55.43;100804.00;5054582;28;20051;-51
2021/06/17 03:20:12;;;;;;;18.17;13.00;;;;;;;22.87;55.69;100793.69;5036617;28;20090;-51
2021/06/17 03:22:43;;;;;;;18.35;13.18;;;;;;;22.85;55.79;100801.59;5036931;28;20495;-54
2021/06/17 03:25:15;;;;;;;18.60;12.73;;;;;;;22.84;55.93;100808.31;5037289;28;20076;-51
2021/06/17 03:27:44;;;;;;;19.05;13.30;;;;;;;22.86;56.19;100797.66;5036925;28;20103;-50
2021/06/17 03:30:12;;;;;;;20.75;13.75;;;;;;;22.87;56.22;100801.22;5036870;28;20561;-52
2021/06/17 03:32:40;;;;;;;18.00;13.30;;;;;;;22.88;56.28;100795.34;5054465;28;20450;-53
2021/06/17 03:35:09;;;;;;;21.05;14.15;;;;;;;22.87;56.36;100793.69;5032690;28;20057;-50
2021/06/17 03:37:38;;;;;;;16.98;12.63;;;;;;;22.87;56.58;100802.03;5033142;28;20100;-53
2021/06/17 03:40:06;;;;;;;21.92;14.10;;;;;;;22.89;56.56;100790.56;5040550;28;20123;-53
2021/06/17 03:42:34;;;;;;;18.63;13.52;;;;;;;22.93;56.42;100803.41;5054376;28;20083;-55
2021/06/17 03:45:02;;;;;;;18.95;13.38;;;;;;;22.99;56.44;100797.63;5035946;28;20037;-54
2021/06/17 03:47:30;;;;;;;19.35;13.05;;;;;;;23.03;56.21;100796.56;5035316;28;20048;-54
2021/06/17 03:49:59;;;;;;;20.60;13.98;;;;;;;23.07;56.17;100791.13;5052493;28;20041;-54
2021/06/17 03:52:28;;;;;;;17.20;12.98;;;;;;;23.10;55.97;100790.41;5035405;28;20041;-56
2021/06/17 03:54:57;;;;;;;19.35;12.90;;;;;;;23.12;56.01;100799.22;5035503;28;20053;-53
2021/06/17 03:57:25;;;;;;;16.17;12.52;;;;;;;23.15;55.92;100804.06;5052809;28;20461;-48
2021/06/17 03:59:55;;;;;;;17.08;12.13;;;;;;;23.17;55.76;100807.31;5035443;28;20053;-52
2021/06/17 04:02:25;;;;;;;16.75;12.93;;;;;;;23.21;55.71;100799.88;5035487;28;20388;-55
2021/06/17 04:04:53;;;;;;;18.23;13.70;;;;;;;23.20;56.00;100800.22;5035116;28;20053;-54
2021/06/17 04:07:23;;;;;;;14.65;11.73;;;;;;;23.18;55.80;100801.38;5053666;28;20061;-55
2021/06/17 04:09:52;;;;;;;20.85;13.40;;;;;;;23.18;55.67;100797.78;5036636;28;20045;-52
2021/06/17 04:12:22;;;;;;;16.48;13.15;;;;;;;23.20;56.05;100801.03;5020684;28;20091;-54
2021/06/17 04:14:52;;;;;;;19.30;13.32;;;;;;;23.20;55.80;100801.03;5038730;28;20041;-52
2021/06/17 04:17:27;;;;;;;19.52;12.70;;;;;;;23.22;56.18;100809.81;5055354;28;20098;-51
2021/06/17 04:19:54;;;;;;;16.50;12.88;;;;;;;23.25;56.36;100808.31;5055970;28;20154;-55
2021/06/17 04:22:24;;;;;;;18.55;12.70;;;;;;;23.28;56.25;100808.41;5035662;28;20098;-51
2021/06/17 04:24:54;;;;;;;17.00;11.85;;;;;;;23.30;55.64;100805.25;5034927;28;20658;-55
2021/06/17 04:27:22;;;;;;;17.00;11.85;;;;;;;23.33;56.04;100810.94;5035006;28;20053;-54
2021/06/17 04:29:52;;;;;;;18.27;12.50;;;;;;;23.36;55.71;100813.00;5039974;28;20066;-52
2021/06/17 04:32:20;;;;;;;17.50;13.73;;;;;;;23.38;56.08;100810.66;5052218;28;20553;-52
2021/06/17 04:34:50;;;;;;;20.33;12.30;;;;;;;23.40;56.27;100810.28;5050538;28;20057;-53
2021/06/17 04:37:23;;;;;;;18.35;13.32;;;;;;;23.42;56.55;100812.72;5034809;28;20483;-54
2021/06/17 04:39:52;;;;;;;19.45;13.95;;;;;;;23.42;56.65;100812.72;5052183;28;20040;-53
2021/06/17 04:42:20;;;;;;;18.90;13.52;;;;;;;23.42;56.63;100810.75;5034615;28;20049;-51
2021/06/17 04:44:48;;;;;;;21.02;13.30;;;;;;;23.43;56.95;100811.56;5034413;28;20045;-53
2021/06/17 04:47:17;;;;;;;20.00;14.23;;;;;;;23.46;57.15;100808.09;5034141;28;20083;-50
2021/06/17 04:49:46;;;;;;;18.73;14.00;;;;;;;23.44;57.29;100816.78;5051786;28;20327;-53
2021/06/17 04:52:18;;;;;;;20.48;13.60;;;;;;;23.44;57.01;100814.00;5034203;28;20124;-52
2021/06/17 04:54:46;;;;;;;19.13;14.48;;;;;;;23.46;57.50;100819.22;5033986;28;20530;-52
2021/06/17 04:57:13;;;;;;;22.20;14.65;;;;;;;23.46;57.35;100820.00;5051739;28;20446;-52
2021/06/17 04:59:41;;;;;;;19.98;13.18;;;;;;;23.48;57.26;100823.25;5051507;28;20059;-52
2021/06/17 05:02:08;;;;;;;16.75;13.20;;;;;;;23.49;57.19;100812.94;5050916;28;20569;-53
2021/06/17 05:04:36;;;;;;;23.05;14.40;;;;;;;23.51;57.58;100821.72;5051604;28;20041;-49
2021/06/17 05:12:19;;;;;;;17.98;12.23;;;;;;;23.55;57.01;100817.06;5036436;28;20052;-50
2021/06/17 05:14:52;;;;;;;20.08;14.08;;;;;;;23.54;57.55;100816.25;4905048;28;10001285;-53
2021/06/17 05:17:20;;;;;;;20.80;13.25;;;;;;;23.57;57.62;100823.06;4703916;28;9999915;-49
2021/06/17 05:19:47;;;;;;;22.90;13.25;;;;;;;23.57;57.53;100821.13;5053291;28;20041;-54
2021/06/17 05:22:16;;;;;;;20.75;14.07;;;;;;;23.59;57.78;100820.75;5053300;28;20064;-54
2021/06/17 05:24:43;;;;;;;23.27;13.93;;;;;;;23.62;57.67;100817.28;5035821;28;20041;-53
2021/06/17 05:27:11;;;;;;;17.33;13.20;;;;;;;23.62;57.57;100822.84;5035182;28;20049;-53
2021/06/17 05:29:39;;;;;;;19.77;13.35;;;;;;;23.62;57.46;100820.06;5053422;28;20053;-52
2021/06/17 05:32:07;;;;;;;18.70;12.52;;;;;;;23.63;57.11;100827.22;5053217;28;20488;-51
2021/06/17 05:34:34;;;;;;;16.48;12.77;;;;;;;23.64;57.13;100826.03;5055635;28;20266;-56
2021/06/17 05:37:06;;;;;;;19.65;12.35;;;;;;;23.65;56.85;100822.09;5073577;28;20044;-53
2021/06/17 05:39:33;;;;;;;18.10;12.38;;;;;;;23.66;56.52;100820.94;5072756;28;20052;-55
2021/06/17 05:42:01;;;;;;;19.98;11.75;;;;;;;23.69;56.09;100819.41;5073476;28;20064;-50
2021/06/17 05:44:28;;;;;;;18.00;11.68;;;;;;;23.70;56.06;100819.06;5073669;28;20080;-56
2021/06/17 05:46:56;;;;;;;17.55;11.05;;;;;;;23.72;55.73;100833.44;5073506;28;20094;-52
2021/06/17 05:49:24;;;;;;;14.85;9.93;;;;;;;23.75;55.39;100832.75;5073464;28;20072;-51
2021/06/17 05:51:59;;;;;;;17.05;10.60;;;;;;;23.80;55.01;100840.81;5072825;28;20044;-53
2021/06/17 05:54:26;;;;;;;20.00;11.25;;;;;;;23.84;54.70;100840.13;5073482;28;20044;-54
2021/06/17 05:56:54;;;;;;;16.77;9.60;;;;;;;23.87;54.44;100839.41;5072543;28;20048;-53
2021/06/17 05:59:22;;;;;;;24.45;11.57;;;;;;;23.88;54.60;100836.25;5057980;28;20063;-54
2021/06/17 06:01:50;;;;;;;21.58;10.68;;;;;;;23.91;54.55;100835.53;5053139;28;20495;-53
2021/06/17 06:04:18;;;;;;;17.30;11.13;;;;;;;23.94;54.53;100843.16;5052835;28;20506;-52
2021/06/17 06:06:45;;;;;;;14.13;9.63;;;;;;;23.96;53.73;100837.25;5052833;28;20057;-51
2021/06/17 06:09:13;;;;;;;15.50;8.93;;;;;;;23.98;53.94;100843.25;5053089;28;20048;-54
2021/06/17 06:11:41;;;;;;;21.70;12.13;;;;;;;24.00;53.70;100843.69;5052955;28;20098;-55
2021/06/17 06:14:08;;;;;;;15.80;9.27;;;;;;;24.03;52.86;100848.56;5052732;28;20807;-54
2021/06/17 06:16:36;;;;;;;15.40;8.50;;;;;;;24.08;52.69;100851.06;5051732;28;20118;-52
2021/06/17 06:19:06;;;;;;;14.02;9.18;;;;;;;24.13;52.41;100856.38;5052817;28;20048;-53
2021/06/17 06:21:34;;;;;;;15.25;8.43;;;;;;;24.14;52.11;100846.84;5052537;28;20454;-52
2021/06/17 06:24:02;;;;;;;15.30;7.55;;;;;;;24.18;51.85;100842.19;5052736;28;20049;-52
2021/06/17 06:26:29;;;;;;;14.52;7.68;;;;;;;24.21;51.80;100857.34;5052743;28;20049;-54
2021/06/17 06:28:57;;;;;;;12.77;7.72;;;;;;;24.24;51.52;100856.63;5051233;28;20064;-54
2021/06/17 06:31:25;;;;;;;14.68;8.07;;;;;;;24.24;51.67;100849.09;5052555;28;20045;-52
2021/06/17 06:33:52;;;;;;;17.17;8.45;;;;;;;24.24;51.37;100851.88;5052288;28;20041;-53
2021/06/17 06:36:20;;;;;;;15.55;9.05;;;;;;;24.26;51.30;100850.69;5069261;28;20091;-51
2021/06/17 06:38:47;;;;;;;19.35;9.15;;;;;;;24.24;51.69;100842.69;5071758;28;20068;-51
2021/06/17 06:41:15;;;;;;;17.67;8.20;;;;;;;24.23;51.91;100847.47;5073188;28;20040;-51
2021/06/17 06:43:43;;;;;;;13.43;8.02;;;;;;;24.24;51.64;100865.81;5073856;28;20048;-54
2021/06/17 06:46:12;;;;;;;20.75;8.57;;;;;;;24.26;51.87;100867.41;5073394;28;20041;-49
2021/06/17 06:48:39;;;;;;;17.00;9.18;;;;;;;24.26;52.06;100865.44;5074227;28;20056;-52
2021/06/17 06:51:07;;;;;;;15.40;8.65;;;;;;;24.27;52.12;100860.66;5073752;28;20054;-52
2021/06/17 06:53:35;;;;;;;16.33;8.75;;;;;;;24.27;52.39;100863.44;5072052;28;20487;-52
2021/06/17 06:56:02;;;;;;;15.90;8.45;;;;;;;24.28;52.34;100873.44;5073790;28;20052;-54
2021/06/17 06:58:30;;;;;;;12.57;7.88;;;;;;;24.27;52.39;100880.97;5073486;28;20113;-51
2021/06/17 07:00:58;;;;;;;17.92;9.32;;;;;;;24.30;52.52;100879.44;5060368;28;20072;-52
2021/06/17 07:03:26;;;;;;;13.35;8.20;;;;;;;24.31;52.32;100883.84;5073782;28;20410;-54
2021/06/17 07:05:54;;;;;;;17.45;8.55;;;;;;;24.33;52.50;100887.88;5073609;28;20074;-54
2021/06/17 07:08:25;;;;;;;16.35;8.93;;;;;;;24.37;52.68;100891.56;5073882;28;20037;-53
2021/06/17 07:10:52;;;;;;;26.77;10.85;;;;;;;24.42;51.77;100893.28;5073778;28;20064;-52
2021/06/17 07:13:22;;;;;;;18.63;8.65;;;;;;;24.49;51.03;100899.06;5073451;28;20090;-52
2021/06/17 07:15:49;;;;;;;38.47;13.55;;;;;;;24.57;49.75;100894.44;5073443;28;20076;-53
2021/06/17 07:18:17;;;;;;;34.08;11.88;;;;;;;24.65;48.86;100901.78;5073792;28;20052;-54
2021/06/17 07:20:45;;;;;;;30.88;11.65;;;;;;;24.72;48.57;100901.16;5073112;28;20454;-54
2021/06/17 07:23:13;;;;;;;37.97;13.20;;;;;;;24.80;47.87;100883.44;5072873;28;20072;-51
2021/06/17 07:25:41;;;;;;;49.17;16.40;;;;;;;24.87;47.36;100897.56;5055743;28;20053;-52
2021/06/17 07:28:09;;;;;;;34.00;11.60;;;;;;;24.90;47.25;100898.81;5059134;28;20041;-53
2021/06/17 07:30:36;;;;;;;40.33;13.82;;;;;;;24.92;47.07;100897.25;5073231;28;20352;-55
2021/06/17 07:33:06;;;;;;;34.60;11.48;;;;;;;24.94;46.68;100894.88;5072967;28;20485;-52
2021/06/17 07:35:34;;;;;;;24.55;7.97;;;;;;;24.99;46.93;100894.63;5072620;28;20121;-53
2021/06/17 07:38:01;;;;;;;11.45;5.00;;;;;;;25.04;47.25;100902.72;5073238;28;20044;-52
2021/06/17 07:40:29;;;;;;;11.75;5.28;;;;;;;25.09;47.03;100902.41;5073123;28;20102;-52
2021/06/17 07:42:56;;;;;;;18.95;7.30;;;;;;;25.11;46.94;100896.47;5072363;28;20067;-52
2021/06/17 07:45:29;;;;;;;32.63;9.55;;;;;;;25.10;46.69;100903.22;5072661;28;20040;-53
2021/06/17 07:47:57;;;;;;;15.93;6.70;;;;;;;25.12;47.46;100891.72;5073014;28;20094;-52
2021/06/17 07:50:25;;;;;;;13.23;5.05;;;;;;;25.17;47.85;100905.34;5072967;28;20063;-54
2021/06/17 07:52:52;;;;;;;29.55;10.57;;;;;;;25.16;46.29;100898.16;5059634;28;20090;-50
2021/06/17 07:55:20;;;;;;;15.50;6.55;;;;;;;25.22;47.83;100907.88;5072109;28;20545;-53
2021/06/17 07:57:48;;;;;;;13.52;5.43;;;;;;;25.22;47.48;100903.09;5072596;28;20051;-52
2021/06/17 08:00:16;;;;;;;13.68;5.65;;;;;;;25.23;47.61;100903.91;5072708;28;20072;-50
2021/06/17 08:02:43;;;;;;;14.90;5.80;;;;;;;25.26;47.48;100906.78;5072748;28;20376;-51
2021/06/17 08:05:11;;;;;;;11.15;4.75;;;;;;;25.30;48.21;100895.69;5070953;28;20048;-52
2021/06/17 08:07:41;;;;;;;10.63;4.40;;;;;;;25.36;48.73;100899.00;5072237;28;20048;-51
2021/06/17 08:10:09;;;;;;;7.40;3.95;;;;;;;25.42;48.17;100894.75;5072508;28;20057;-50
2021/06/17 08:12:36;;;;;;;9.10;4.07;;;;;;;25.42;48.59;100884.41;5072645;28;20072;-52
2021/06/17 08:15:05;;;;;;;9.55;4.20;;;;;;;25.45;48.15;100888.44;5072441;28;20068;-51
2021/06/17 08:17:33;;;;;;;12.90;4.63;;;;;;;25.42;48.24;100884.41;5072159;28;20457;-53
2021/06/17 08:20:00;;;;;;;10.85;4.47;;;;;;;25.45;48.74;100872.50;5072638;28;20036;-54
2021/06/17 08:22:28;;;;;;;13.57;5.05;;;;;;;25.47;48.63;100864.59;5063143;28;20041;-55
2021/06/17 08:24:56;;;;;;;11.27;4.38;;;;;;;25.50;48.58;100868.63;5071950;28;20544;-53
2021/06/17 08:27:28;;;;;;;9.27;4.00;;;;;;;25.54;48.04;100858.31;5072503;28;20048;-50
2021/06/17 08:29:56;;;;;;;11.35;4.63;;;;;;;25.56;48.08;100866.31;5072178;28;20445;-51
2021/06/17 08:32:23;;;;;;;14.30;3.90;;;;;;;25.56;48.28;100860.75;5072257;28;20048;-53
2021/06/17 08:34:51;;;;;;;11.90;5.47;;;;;;;25.53;48.04;100858.69;5071979;28;20045;-52
2021/06/17 08:37:19;;;;;;;12.48;4.53;;;;;;;25.57;48.13;100848.41;5072171;28;20040;-51
2021/06/17 08:39:47;;;;;;;10.90;5.05;;;;;;;25.56;48.10;100855.16;5071476;28;20045;-52
2021/06/17 08:42:15;;;;;;;9.98;4.55;;;;;;;25.60;48.43;100845.69;5072374;28;20048;-55
2021/06/17 08:44:43;;;;;;;7.82;3.85;;;;;;;25.64;48.16;100831.78;5071887;28;20040;-51
2021/06/17 08:47:10;;;;;;;12.50;4.50;;;;;;;25.67;49.03;100831.06;5071974;28;20094;-52
2021/06/17 08:49:38;;;;;;;15.43;5.35;;;;;;;25.82;48.49;100829.31;5071636;28;20063;-53
2021/06/17 08:52:06;;;;;;;9.20;4.03;;;;;;;25.88;48.17;100828.69;5064277;28;20063;-54
2021/06/17 08:54:34;;;;;;;7.90;4.18;;;;;;;25.93;48.37;100828.38;5064669;28;20110;-51
2021/06/17 08:57:01;;;;;;;10.25;4.40;;;;;;;25.98;47.51;100820.84;5071662;28;20036;-53
2021/06/17 08:59:34;;;;;;;10.60;4.00;;;;;;;25.98;47.80;100826.41;5071816;28;20036;-53
2021/06/17 09:02:03;;;;;;;19.08;4.60;;;;;;;26.03;47.28;100820.56;5072110;28;20056;-53
2021/06/17 09:04:31;;;;;;;10.73;4.22;;;;;;;26.06;47.20;100819.78;5071717;28;20041;-52
2021/06/17 09:07:06;;;;;;;13.20;4.53;;;;;;;26.02;47.25;100811.34;5071904;28;20055;-52
2021/06/17 09:09:39;;;;;;;13.18;4.68;;;;;;;26.06;47.68;100812.22;5045724;28;20685;-53
2021/06/17 09:12:09;;;;;;;11.88;4.68;;;;;;;26.18;47.08;100805.63;5054598;28;20055;-52
2021/06/17 09:14:54;;;;;;;16.55;4.90;;;;;;;26.32;47.05;100793.88;5041868;28;20060;-52
2021/06/17 09:17:22;;;;;;;8.75;4.65;;;;;;;26.41;47.57;100788.81;5051526;28;20082;-51
2021/06/17 09:19:53;;;;;;;12.43;4.43;;;;;;;26.54;46.67;100793.00;5051344;28;20438;-51
2021/06/17 09:22:24;;;;;;;13.00;4.88;;;;;;;26.59;46.16;100788.28;5050462;28;20033;-52
2021/06/17 09:24:53;;;;;;;12.43;4.45;;;;;;;26.63;45.97;100780.78;5050840;28;20490;-50
2021/06/17 09:27:39;;;;;;;10.40;4.18;;;;;;;26.67;45.53;100776.81;5051322;28;20048;-50
2021/06/17 09:30:19;;;;;;;12.95;4.25;;;;;;;26.74;46.01;100778.91;5051364;28;20068;-53
2021/06/17 09:32:52;;;;;;;9.65;4.68;;;;;;;26.81;45.72;100783.78;5051253;28;20041;-53
2021/06/17 09:35:23;;;;;;;11.68;4.70;;;;;;;26.76;45.36;100798.91;5057392;28;20114;-50
2021/06/17 09:37:52;;;;;;;10.80;3.97;;;;;;;26.72;45.72;100810.03;5070656;28;20033;-50
2021/06/17 09:40:30;;;;;;;15.55;3.92;;;;;;;26.73;45.70;100796.88;5053407;28;20036;-54
2021/06/17 09:43:17;;;;;;;10.63;4.40;;;;;;;26.75;45.98;100803.69;5071099;28;20111;-51
2021/06/17 09:46:05;;;;;;;10.82;4.40;;;;;;;26.76;46.39;100794.09;5071212;28;20068;-55
2021/06/17 09:48:49;;;;;;;9.50;4.55;;;;;;;26.85;46.00;100795.81;5059359;28;20071;-55
2021/06/17 09:51:38;;;;;;;9.27;4.13;;;;;;;26.94;45.77;100804.72;5070619;28;20048;-56
2021/06/17 09:54:18;;;;;;;11.18;4.03;;;;;;;27.01;45.02;100804.78;5070920;28;20075;-53
2021/06/17 09:57:01;;;;;;;12.32;4.10;;;;;;;27.09;44.98;100805.72;5071193;28;20052;-50
2021/06/17 09:59:45;;;;;;;9.68;4.15;;;;;;;27.15;44.61;100799.38;5059401;28;20044;-52
2021/06/17 10:02:23;;;;;;;9.18;4.15;;;;;;;27.15;44.74;100799.38;5072389;28;20048;-54
2021/06/17 10:05:08;;;;;;;12.55;4.40;;;;;;;27.12;44.80;100800.13;5074622;28;20089;-54
2021/06/17 10:07:36;;;;;;;10.30;4.38;;;;;;;27.15;45.46;100799.38;5074320;28;20055;-56
2021/06/17 10:10:05;;;;;;;5.57;3.50;;;;;;;27.15;45.81;100804.97;5074826;28;20049;-53
2021/06/17 10:12:32;;;;;;;8.32;4.10;;;;;;;27.15;45.60;100804.97;5056945;28;20110;-53
2021/06/17 10:15:00;;;;;;;8.80;4.10;;;;;;;27.19;45.65;100811.44;5074619;28;20044;-55
2021/06/17 10:17:28;;;;;;;13.85;4.53;;;;;;;27.24;45.36;100812.28;5074427;28;20051;-53
2021/06/17 10:19:57;;;;;;;9.63;4.90;;;;;;;27.25;45.69;100814.72;5057328;28;20044;-54
2021/06/17 10:22:29;;;;;;;12.90;4.72;;;;;;;27.31;45.13;100815.97;5073641;28;20094;-55
2021/06/17 10:24:57;;;;;;;9.95;4.38;;;;;;;27.29;45.60;100828.75;5074965;28;20052;-55
2021/06/17 10:27:36;;;;;;;10.93;4.68;;;;;;;27.23;45.54;100830.25;5075696;28;20098;-50
2021/06/17 10:30:06;;;;;;;10.45;4.65;;;;;;;27.29;46.08;100834.34;5063338;28;20487;-53
2021/06/17 10:32:36;;;;;;;12.98;4.50;;;;;;;27.30;45.70;100844.31;4348171;28;10000525;-55
2021/06/17 10:35:05;;;;;;;8.55;4.47;;;;;;;27.27;45.11;100840.31;5054056;28;20056;-51
2021/06/17 10:37:34;;;;;;;8.63;4.82;;;;;;;27.28;45.09;100836.34;5072024;28;20044;-53
2021/06/17 10:40:17;;;;;;;8.80;4.22;;;;;;;27.32;44.92;100844.75;5071763;28;20048;-54
2021/06/17 10:42:49;;;;;;;8.05;4.40;;;;;;;27.36;45.07;100848.41;5071806;28;20045;-52
2021/06/17 10:45:37;;;;;;;10.20;5.03;;;;;;;27.34;45.00;100856.38;5071485;28;20047;-53
2021/06/17 10:48:14;;;;;;;10.27;4.05;;;;;;;27.44;45.67;100854.88;5072130;28;20086;-51
2021/06/17 10:51:09;;;;;;;10.18;4.90;;;;;;;27.55;45.49;100861.41;5070277;28;20503;-52
2021/06/17 10:53:44;;;;;;;9.45;4.47;;;;;;;27.54;45.51;100866.22;5052544;28;20052;-49
2021/06/17 10:56:37;;;;;;;8.32;4.40;;;;;;;27.57;45.14;100873.84;5074046;28;20106;-53
2021/06/17 10:59:05;;;;;;;9.20;4.82;;;;;;;27.65;44.98;100865.50;5074149;28;20502;-52
2021/06/17 11:01:41;;;;;;;12.35;4.22;;;;;;;27.66;43.64;100872.72;5073876;28;20446;-50
2021/06/17 11:04:11;;;;;;;10.45;5.38;;;;;;;27.68;44.50;100875.94;5073576;28;20036;-53
2021/06/17 11:06:50;;;;;;;12.90;4.57;;;;;;;27.73;42.10;100875.59;5073620;28;20490;-52
2021/06/17 11:09:44;;;;;;;8.75;4.28;;;;;;;27.71;41.09;100875.16;5073683;28;20057;-50
2021/06/17 11:12:17;;;;;;;7.88;4.13;;;;;;;27.68;44.75;100870.34;5073493;28;20045;-51
2021/06/17 11:14:50;;;;;;;10.63;4.57;;;;;;;27.70;43.67;100868.75;5073263;28;20419;-52
2021/06/17 11:17:29;;;;;;;10.50;5.35;;;;;;;27.66;40.58;100867.94;5073661;28;20060;-52
2021/06/17 11:20:06;;;;;;;9.45;4.55;;;;;;;27.70;43.94;100867.97;5073890;28;20080;-51
2021/06/17 11:22:45;;;;;;;8.85;4.57;;;;;;;27.71;43.56;100877.97;5064760;28;20041;-51
2021/06/17 11:25:18;;;;;;;12.77;4.50;;;;;;;27.74;41.23;100874.41;5074138;28;20102;-53
2021/06/17 11:27:59;;;;;;;9.05;3.95;;;;;;;27.76;43.11;100866.44;5074057;28;20051;-52
2021/06/17 11:30:39;;;;;;;13.20;4.18;;;;;;;27.87;41.44;100870.16;5073362;28;20170;-54
2021/06/17 11:33:19;;;;;;;11.80;4.53;;;;;;;27.88;37.53;100868.97;5072949;28;20151;-52
2021/06/17 11:35:47;;;;;;;13.50;4.43;;;;;;;27.97;39.79;100882.66;5073302;28;20483;-49